Ovda, Israel
Current Conditions -  °F | °C
As of 4:00 PM on Sunday 23 Nov 2014 (Local Time) from OJAQ Reporting Station
Few Clouds Few Clouds  
Wind Chill: 73°   Ceiling: Unl
Heat Index: 73°   Visibility: 6mi
Dew Point: 43°   Wind: 12mph
Humidity: 33%   Direction: 360°N
Pressure: 29.91"   Gusts: NA
Location:  30°N, 34.83°E
Report Text: OJAQ 231300Z 36010KT 9999 FEW045 23/06 Q1013 NOSIG
Loading
Personal Weather Stations






























Interactive Weather Map New forecast layout! Learn more

10-Day Weather Forecast

Advertisements
Track Severe Weather on mobile